createdAt,value
2022-07-30T00:02:01.609Z,24.13
2022-07-30T00:07:04.635Z,23.68
2022-07-30T00:12:08.467Z,23.38
2022-07-30T00:17:10.420Z,23.26
2022-07-30T00:22:12.334Z,23.10
2022-07-30T00:27:14.686Z,23.01
2022-07-30T00:32:16.837Z,22.96
2022-07-30T00:37:18.708Z,22.86
2022-07-30T00:42:25.823Z,22.82
2022-07-30T00:47:27.790Z,22.95
2022-07-30T00:52:30.042Z,22.73
2022-07-30T00:57:32.063Z,22.41
2022-07-30T01:02:34.444Z,22.28
2022-07-30T01:07:36.843Z,22.21
2022-07-30T01:12:39.878Z,22.21
2022-07-30T01:17:42.042Z,22.14
2022-07-30T01:23:02.826Z,22.19
2022-07-30T01:28:10.569Z,22.19
2022-07-30T01:33:15.394Z,22.04
2022-07-30T01:38:22.050Z,21.98
2022-07-30T01:43:25.936Z,22.11
2022-07-30T01:48:30.677Z,22.09
2022-07-30T01:53:36.860Z,22.10
2022-07-30T01:58:40.250Z,22.25
2022-07-30T02:04:03.421Z,22.39
2022-07-30T02:09:11.096Z,22.30
2022-07-30T02:14:19.870Z,22.13
2022-07-30T02:19:32.641Z,22.04
2022-07-30T02:24:38.084Z,21.92
2022-07-30T02:29:40.988Z,21.95
2022-07-30T02:34:44.862Z,22.08
2022-07-30T02:39:48.444Z,22.10
2022-07-30T02:44:52.961Z,21.92
2022-07-30T02:49:58.091Z,21.84
2022-07-30T02:55:02.835Z,21.64
2022-07-30T03:00:05.917Z,21.46
2022-07-30T03:05:09.080Z,21.50
2022-07-30T03:10:11.937Z,21.37
2022-07-30T03:15:14.505Z,21.20
2022-07-30T03:20:23.364Z,21.08
2022-07-30T03:25:28.432Z,21.23
2022-07-30T03:30:31.160Z,21.33
2022-07-30T03:35:33.500Z,21.32
2022-07-30T03:40:35.792Z,21.28
2022-07-30T03:45:41.571Z,21.02
2022-07-30T03:50:45.796Z,20.96
2022-07-30T03:55:47.913Z,21.00
2022-07-30T04:01:08.455Z,21.07
2022-07-30T04:06:11.182Z,21.03
2022-07-30T04:11:13.071Z,20.96
2022-07-30T04:16:40.302Z,21.03
2022-07-30T04:21:49.387Z,21.01
2022-07-30T04:26:52.393Z,21.13
2022-07-30T04:31:55.400Z,21.20
2022-07-30T04:37:03.848Z,21.10
2022-07-30T04:42:06.254Z,21.27
2022-07-30T04:47:08.734Z,21.36
2022-07-30T04:52:18.601Z,21.21
2022-07-30T04:57:20.819Z,21.08
2022-07-30T05:02:24.659Z,21.09
2022-07-30T05:07:27.928Z,21.22
2022-07-30T05:12:48.093Z,21.06
2022-07-30T05:17:52.303Z,21.06
2022-07-30T05:22:55.110Z,21.17
2022-07-30T05:27:58.887Z,21.24
2022-07-30T05:33:01.257Z,21.16
2022-07-30T05:38:06.100Z,21.22
2022-07-30T05:43:18.635Z,21.30
2022-07-30T05:48:20.735Z,21.42
2022-07-30T05:53:22.794Z,21.53
2022-07-30T05:58:43.321Z,21.57
2022-07-30T06:03:48.322Z,21.63
2022-07-30T06:09:08.808Z,21.59
2022-07-30T06:14:10.802Z,21.68
2022-07-30T06:19:19.379Z,21.70
2022-07-30T06:24:21.907Z,21.77
2022-07-30T06:29:36.717Z,21.84
2022-07-30T06:34:38.653Z,21.90
2022-07-30T06:39:57.466Z,21.97
2022-07-30T06:45:00.397Z,21.96
2022-07-30T06:50:05.254Z,22.01
2022-07-30T06:55:07.679Z,22.03
2022-07-30T07:00:23.761Z,22.06
2022-07-30T07:05:29.063Z,22.07
2022-07-30T07:10:32.199Z,22.09
2022-07-30T07:15:48.367Z,22.11
2022-07-30T07:20:54.895Z,22.16
2022-07-30T07:30:59.552Z,22.16
2022-07-30T07:36:01.503Z,22.17
2022-07-30T07:41:06.910Z,22.14
2022-07-30T07:46:09.888Z,22.01
2022-07-30T07:51:12.019Z,22.02
2022-07-30T07:56:14.399Z,21.90
2022-07-30T08:01:17.284Z,21.92
2022-07-30T08:06:37.849Z,21.84
2022-07-30T08:12:06.149Z,21.71
2022-07-30T08:17:28.275Z,21.80
2022-07-30T08:22:47.145Z,21.85
2022-07-30T08:27:50.391Z,21.91
2022-07-30T08:32:54.888Z,21.87
2022-07-30T08:37:57.022Z,21.69
2022-07-30T08:43:00.372Z,21.63
2022-07-30T08:48:03.374Z,21.42
2022-07-30T08:53:13.843Z,21.55
2022-07-30T08:58:28.452Z,21.64
2022-07-30T09:03:30.781Z,21.59
2022-07-30T09:08:35.149Z,21.52
2022-07-30T09:13:39.220Z,21.37
2022-07-30T09:18:44.587Z,21.27
2022-07-30T09:24:11.223Z,21.22
2022-07-30T09:29:32.338Z,21.13
2022-07-30T09:34:52.560Z,21.22
2022-07-30T09:40:15.191Z,21.31
2022-07-30T09:45:58.923Z,21.29
2022-07-30T09:51:00.881Z,21.25
2022-07-30T09:56:24.884Z,21.13
2022-07-30T10:01:49.799Z,21.19
2022-07-30T10:07:25.307Z,21.38
2022-07-30T10:12:33.220Z,21.38
2022-07-30T10:17:38.648Z,21.42
2022-07-30T10:23:18.373Z,21.45
2022-07-30T10:28:43.601Z,21.47
2022-07-30T10:33:46.806Z,21.43
2022-07-30T10:38:52.477Z,21.19
2022-07-30T10:43:57.621Z,20.98
2022-07-30T10:49:17.606Z,20.93
2022-07-30T10:54:33.402Z,20.86
2022-07-30T10:59:55.666Z,20.83
2022-07-30T11:05:17.442Z,20.74
2022-07-30T11:10:37.403Z,20.79
2022-07-30T11:15:58.556Z,21.14
2022-07-30T11:21:22.519Z,21.44
2022-07-30T11:26:41.101Z,21.70
2022-07-30T11:31:56.242Z,21.92
2022-07-30T11:37:18.354Z,22.09
2022-07-30T11:42:32.767Z,22.22
2022-07-30T11:47:35.931Z,22.33
2022-07-30T11:52:38.518Z,22.38
2022-07-30T11:57:42.563Z,22.36
2022-07-30T12:02:45.634Z,22.49
2022-07-30T12:07:47.642Z,22.54
2022-07-30T12:12:49.909Z,22.57
2022-07-30T12:18:10.996Z,22.75
2022-07-30T12:23:15.647Z,22.86
2022-07-30T12:28:33.342Z,23.10
2022-07-30T12:33:38.347Z,23.19
2022-07-30T12:38:45.829Z,23.36
2022-07-30T12:43:52.885Z,23.62
2022-07-30T12:49:21.109Z,23.92
2022-07-30T12:54:28.111Z,24.20
2022-07-30T12:59:32.658Z,24.22
2022-07-30T13:04:39.974Z,24.20
2022-07-30T13:10:12.919Z,24.09
2022-07-30T13:15:20.291Z,24.05
2022-07-30T13:20:22.780Z,24.00
2022-07-30T13:25:25.254Z,24.06
2022-07-30T13:30:41.035Z,24.17
2022-07-30T13:35:43.910Z,24.20
2022-07-30T13:40:45.938Z,24.39
2022-07-30T13:45:49.301Z,24.51
2022-07-30T13:50:52.049Z,24.57
2022-07-30T13:55:54.504Z,24.46
2022-07-30T14:00:56.689Z,24.46
2022-07-30T14:06:10.479Z,24.45
2022-07-30T14:11:13.735Z,24.51
2022-07-30T14:16:42.429Z,24.53
2022-07-30T14:21:38.534Z,24.53
2022-07-30T14:26:40.525Z,24.54
2022-07-30T14:31:42.693Z,24.51
2022-07-30T14:36:44.851Z,24.55
2022-07-30T14:41:46.933Z,24.62
2022-07-30T14:46:52.077Z,24.61
2022-07-30T14:51:54.734Z,24.59
2022-07-30T14:56:58.604Z,24.68
2022-07-30T15:02:01.063Z,24.76
2022-07-30T15:07:03.168Z,24.80
2022-07-30T15:12:10.101Z,24.85
2022-07-30T15:17:12.497Z,24.78
2022-07-30T15:22:15.911Z,24.80
2022-07-30T15:27:18.114Z,24.89
2022-07-30T15:32:20.214Z,24.96
2022-07-30T15:37:22.256Z,25.02
2022-07-30T15:42:27.451Z,25.08
2022-07-30T15:47:29.780Z,25.09
2022-07-30T15:52:32.080Z,25.08
2022-07-30T15:57:34.064Z,25.11
2022-07-30T16:02:37.115Z,25.17
2022-07-30T16:07:39.015Z,25.18
2022-07-30T16:12:42.301Z,25.21
2022-07-30T16:17:44.220Z,25.25
2022-07-30T16:22:46.147Z,25.22
2022-07-30T16:27:48.033Z,25.20
2022-07-30T16:32:50.599Z,25.17
2022-07-30T16:37:53.460Z,25.14
2022-07-30T16:42:55.294Z,25.11
2022-07-30T16:47:57.548Z,25.08
2022-07-30T16:52:59.414Z,25.01
2022-07-30T16:58:01.547Z,24.96
2022-07-30T17:03:03.649Z,24.87
2022-07-30T17:08:05.827Z,24.75
2022-07-30T17:13:10.219Z,24.70
2022-07-30T17:18:12.393Z,24.65
2022-07-30T17:23:14.266Z,24.58
2022-07-30T17:28:18.204Z,24.50
2022-07-30T17:33:20.088Z,24.45
2022-07-30T17:38:21.889Z,24.42
2022-07-30T17:43:23.747Z,24.37
2022-07-30T17:48:25.622Z,24.29
2022-07-30T17:53:27.609Z,24.25
2022-07-30T17:58:29.525Z,24.16
2022-07-30T18:03:32.305Z,24.06
2022-07-30T18:08:35.167Z,23.91
2022-07-30T18:13:37.015Z,23.70
2022-07-30T18:18:39.230Z,23.53
2022-07-30T18:23:41.368Z,23.32
2022-07-30T18:28:43.982Z,23.13
2022-07-30T18:33:45.766Z,22.93
2022-07-30T18:38:49.785Z,22.90
2022-07-30T18:43:53.330Z,22.76
2022-07-30T18:48:55.294Z,22.58
2022-07-30T18:53:59.180Z,22.57
2022-07-30T18:59:01.148Z,22.47
2022-07-30T19:04:04.054Z,22.41
2022-07-30T19:09:06.970Z,22.26
2022-07-30T19:14:18.986Z,22.16
2022-07-30T19:19:20.894Z,22.11
2022-07-30T19:24:22.999Z,22.09
2022-07-30T19:29:28.807Z,22.02
2022-07-30T19:34:31.556Z,21.98
2022-07-30T19:39:34.989Z,21.75
2022-07-30T19:44:41.069Z,21.63
2022-07-30T19:49:43.522Z,21.63
2022-07-30T19:54:46.787Z,21.66
2022-07-30T19:59:59.975Z,21.53
2022-07-30T20:05:14.143Z,21.33
2022-07-30T20:10:17.537Z,21.28
2022-07-30T20:15:20.135Z,21.09
2022-07-30T20:20:26.232Z,21.07
2022-07-30T20:25:29.115Z,20.98
2022-07-30T20:30:39.790Z,20.95
2022-07-30T20:35:44.033Z,21.00
2022-07-30T20:40:47.591Z,20.96
2022-07-30T20:45:49.723Z,20.99
2022-07-30T20:50:51.661Z,21.00
2022-07-30T20:55:53.609Z,20.98
2022-07-30T21:00:55.933Z,20.98
2022-07-30T21:05:57.891Z,20.99
2022-07-30T21:11:03.269Z,20.94
2022-07-30T21:16:16.125Z,20.89
2022-07-30T21:21:29.269Z,20.76
2022-07-30T21:26:40.628Z,20.65
2022-07-30T21:32:01.680Z,20.59
2022-07-30T21:37:04.385Z,20.68
2022-07-30T21:42:06.279Z,20.67
2022-07-30T21:47:10.793Z,20.61
2022-07-30T21:52:12.798Z,20.58
2022-07-30T21:57:14.583Z,20.62
2022-07-30T22:02:19.009Z,20.56
2022-07-30T22:07:22.052Z,20.48
2022-07-30T22:12:28.792Z,20.33
2022-07-30T22:17:37.458Z,20.25
2022-07-30T22:23:00.750Z,20.26
2022-07-30T22:28:02.593Z,20.25
2022-07-30T22:33:16.188Z,20.31
2022-07-30T22:38:19.732Z,20.26
2022-07-30T22:43:21.745Z,20.13
2022-07-30T22:48:25.448Z,19.99
2022-07-30T22:54:10.906Z,19.93
2022-07-30T22:58:51.126Z,19.95
2022-07-30T23:03:53.030Z,19.98
2022-07-30T23:08:55.733Z,19.84
2022-07-30T23:13:59.419Z,19.73
2022-07-30T23:19:01.785Z,19.62
2022-07-30T23:24:03.783Z,19.61
2022-07-30T23:29:05.614Z,19.65
2022-07-30T23:34:07.440Z,19.69
2022-07-30T23:39:09.274Z,19.58
2022-07-30T23:44:11.071Z,19.44
2022-07-30T23:49:12.879Z,19.40
2022-07-30T23:54:14.803Z,19.35
2022-07-30T23:59:16.635Z,19.35
